X  Schlie├čen METAR Luftfahrt Wetterdaten     KDNN Dalton Municipal Airport
Temperatur
21°C Temperatur
16°C Taupunkt
73% Feuchtigkeit



Wind
0 KM/S
0 MPS
0 M/S
0 KTS



Kein Wind
N
Aktuelle Wetterlage

Unknown Unknown
Luftdruck 1019.62 (hPa) - 30.11 (inHg)
Sichtweite 10 (Meile) - 16.1 (Km)
Flughafen
Flughafen Code KDNN

Position : Dalton Municipal Airport
Entfernung: 34 (Km)

Metar:
KDNN 040015Z AUTO 00000KT 10SM 21/16 A3011 RMK AO2 T02130158 $

Zeit: 10-03-2023 20:15 EDT